sensor_id;sensor_type;location;lat;lon;timestamp;P1;durP1;ratioP1;P2;durP2;ratioP2
34876;SDS011;21086;44.780;17.194;2023-11-21T00:01:16;59.28;;;35.53;;
34876;SDS011;21086;44.780;17.194;2023-11-21T00:03:43;64.07;;;36.88;;
34876;SDS011;21086;44.780;17.194;2023-11-21T00:06:10;56.72;;;33.65;;
34876;SDS011;21086;44.780;17.194;2023-11-21T00:08:37;67.47;;;36.95;;
34876;SDS011;21086;44.780;17.194;2023-11-21T00:11:04;54.72;;;32.08;;
34876;SDS011;21086;44.780;17.194;2023-11-21T00:13:32;66.50;;;37.33;;
34876;SDS011;21086;44.780;17.194;2023-11-21T00:15:59;55.50;;;35.60;;
34876;SDS011;21086;44.780;17.194;2023-11-21T00:18:26;57.22;;;32.20;;
34876;SDS011;21086;44.780;17.194;2023-11-21T00:20:53;57.85;;;35.65;;
34876;SDS011;21086;44.780;17.194;2023-11-21T00:23:20;58.03;;;33.53;;
34876;SDS011;21086;44.780;17.194;2023-11-21T00:25:46;54.85;;;33.50;;
34876;SDS011;21086;44.780;17.194;2023-11-21T00:28:14;58.83;;;34.63;;
34876;SDS011;21086;44.780;17.194;2023-11-21T00:30:41;58.85;;;36.40;;
34876;SDS011;21086;44.780;17.194;2023-11-21T00:33:08;57.58;;;34.78;;
34876;SDS011;21086;44.780;17.194;2023-11-21T00:35:35;57.80;;;36.72;;
34876;SDS011;21086;44.780;17.194;2023-11-21T00:38:02;57.08;;;35.22;;
34876;SDS011;21086;44.780;17.194;2023-11-21T00:40:29;57.72;;;34.35;;
34876;SDS011;21086;44.780;17.194;2023-11-21T00:42:57;57.28;;;35.63;;
34876;SDS011;21086;44.780;17.194;2023-11-21T00:45:24;59.65;;;36.25;;
34876;SDS011;21086;44.780;17.194;2023-11-21T00:47:52;61.08;;;37.95;;
34876;SDS011;21086;44.780;17.194;2023-11-21T00:50:19;63.75;;;37.85;;
34876;SDS011;21086;44.780;17.194;2023-11-21T00:52:46;72.13;;;41.20;;
34876;SDS011;21086;44.780;17.194;2023-11-21T00:55:13;64.45;;;36.75;;
34876;SDS011;21086;44.780;17.194;2023-11-21T00:57:40;58.28;;;34.60;;
34876;SDS011;21086;44.780;17.194;2023-11-21T01:00:07;57.65;;;34.65;;
34876;SDS011;21086;44.780;17.194;2023-11-21T01:02:40;55.65;;;34.88;;
34876;SDS011;21086;44.780;17.194;2023-11-21T01:05:07;56.53;;;32.28;;
34876;SDS011;21086;44.780;17.194;2023-11-21T01:07:34;51.47;;;32.58;;
34876;SDS011;21086;44.780;17.194;2023-11-21T01:10:03;46.97;;;29.17;;
34876;SDS011;21086;44.780;17.194;2023-11-21T01:12:34;54.63;;;33.45;;
34876;SDS011;21086;44.780;17.194;2023-11-21T01:15:04;52.65;;;31.60;;
34876;SDS011;21086;44.780;17.194;2023-11-21T01:17:35;53.13;;;32.22;;
34876;SDS011;21086;44.780;17.194;2023-11-21T01:20:03;52.55;;;32.40;;
34876;SDS011;21086;44.780;17.194;2023-11-21T01:22:37;49.95;;;31.77;;
34876;SDS011;21086;44.780;17.194;2023-11-21T01:25:05;49.78;;;32.65;;
34876;SDS011;21086;44.780;17.194;2023-11-21T01:27:34;50.22;;;33.25;;
34876;SDS011;21086;44.780;17.194;2023-11-21T01:30:02;52.17;;;32.95;;
34876;SDS011;21086;44.780;17.194;2023-11-21T01:32:29;59.03;;;34.90;;
34876;SDS011;21086;44.780;17.194;2023-11-21T01:34:56;54.65;;;32.95;;
34876;SDS011;21086;44.780;17.194;2023-11-21T01:37:23;47.70;;;30.10;;
34876;SDS011;21086;44.780;17.194;2023-11-21T01:39:54;52.95;;;32.53;;
34876;SDS011;21086;44.780;17.194;2023-11-21T01:42:22;57.80;;;34.78;;
34876;SDS011;21086;44.780;17.194;2023-11-21T01:44:49;58.08;;;34.67;;
34876;SDS011;21086;44.780;17.194;2023-11-21T01:47:16;65.05;;;37.13;;
34876;SDS011;21086;44.780;17.194;2023-11-21T01:49:44;58.88;;;33.58;;
34876;SDS011;21086;44.780;17.194;2023-11-21T01:52:12;51.97;;;32.88;;
34876;SDS011;21086;44.780;17.194;2023-11-21T01:54:41;59.28;;;35.08;;
34876;SDS011;21086;44.780;17.194;2023-11-21T01:57:08;61.13;;;35.78;;
34876;SDS011;21086;44.780;17.194;2023-11-21T01:59:36;57.00;;;35.25;;
34876;SDS011;21086;44.780;17.194;2023-11-21T02:02:04;56.08;;;33.85;;
34876;SDS011;21086;44.780;17.194;2023-11-21T02:04:32;59.97;;;37.15;;
34876;SDS011;21086;44.780;17.194;2023-11-21T02:07:00;66.43;;;38.53;;
34876;SDS011;21086;44.780;17.194;2023-11-21T02:09:27;62.30;;;37.38;;
34876;SDS011;21086;44.780;17.194;2023-11-21T02:11:59;62.22;;;38.90;;
34876;SDS011;21086;44.780;17.194;2023-11-21T02:14:26;69.15;;;39.10;;
34876;SDS011;21086;44.780;17.194;2023-11-21T02:16:54;60.63;;;35.70;;
34876;SDS011;21086;44.780;17.194;2023-11-21T02:19:23;56.03;;;34.33;;
34876;SDS011;21086;44.780;17.194;2023-11-21T02:21:53;55.13;;;34.33;;
34876;SDS011;21086;44.780;17.194;2023-11-21T02:24:21;55.97;;;32.58;;
34876;SDS011;21086;44.780;17.194;2023-11-21T02:26:49;52.60;;;31.90;;
34876;SDS011;21086;44.780;17.194;2023-11-21T02:29:19;58.83;;;34.85;;
34876;SDS011;21086;44.780;17.194;2023-11-21T02:31:55;54.10;;;31.95;;
34876;SDS011;21086;44.780;17.194;2023-11-21T02:34:22;44.47;;;29.48;;
34876;SDS011;21086;44.780;17.194;2023-11-21T02:36:51;60.55;;;34.58;;
34876;SDS011;21086;44.780;17.194;2023-11-21T02:39:20;50.50;;;33.08;;
34876;SDS011;21086;44.780;17.194;2023-11-21T02:41:48;54.78;;;32.85;;
34876;SDS011;21086;44.780;17.194;2023-11-21T02:44:15;61.15;;;35.08;;
34876;SDS011;21086;44.780;17.194;2023-11-21T02:46:42;53.40;;;32.95;;
34876;SDS011;21086;44.780;17.194;2023-11-21T02:49:09;48.65;;;30.27;;
34876;SDS011;21086;44.780;17.194;2023-11-21T02:51:36;52.63;;;32.13;;
34876;SDS011;21086;44.780;17.194;2023-11-21T02:54:06;51.60;;;32.47;;
34876;SDS011;21086;44.780;17.194;2023-11-21T02:56:34;48.15;;;30.50;;
34876;SDS011;21086;44.780;17.194;2023-11-21T02:59:01;49.92;;;29.65;;
34876;SDS011;21086;44.780;17.194;2023-11-21T03:01:28;51.10;;;31.23;;
34876;SDS011;21086;44.780;17.194;2023-11-21T03:03:56;48.15;;;28.80;;
34876;SDS011;21086;44.780;17.194;2023-11-21T03:06:23;47.08;;;29.77;;
34876;SDS011;21086;44.780;17.194;2023-11-21T03:08:50;51.67;;;28.77;;
34876;SDS011;21086;44.780;17.194;2023-11-21T03:11:17;43.88;;;27.08;;
34876;SDS011;21086;44.780;17.194;2023-11-21T03:13:44;46.08;;;28.10;;
34876;SDS011;21086;44.780;17.194;2023-11-21T03:16:11;42.22;;;26.92;;
34876;SDS011;21086;44.780;17.194;2023-11-21T03:18:39;38.45;;;24.58;;
34876;SDS011;21086;44.780;17.194;2023-11-21T03:21:07;39.53;;;24.05;;
34876;SDS011;21086;44.780;17.194;2023-11-21T03:23:37;41.20;;;25.08;;
34876;SDS011;21086;44.780;17.194;2023-11-21T03:26:04;43.03;;;25.92;;
34876;SDS011;21086;44.780;17.194;2023-11-21T03:28:32;43.55;;;26.73;;
34876;SDS011;21086;44.780;17.194;2023-11-21T03:30:59;39.80;;;24.92;;
34876;SDS011;21086;44.780;17.194;2023-11-21T03:33:25;38.85;;;24.13;;
34876;SDS011;21086;44.780;17.194;2023-11-21T03:35:52;39.20;;;24.45;;
34876;SDS011;21086;44.780;17.194;2023-11-21T03:38:21;35.33;;;24.00;;
34876;SDS011;21086;44.780;17.194;2023-11-21T03:40:48;40.30;;;24.88;;
34876;SDS011;21086;44.780;17.194;2023-11-21T03:43:15;40.38;;;25.52;;
34876;SDS011;21086;44.780;17.194;2023-11-21T03:45:42;37.80;;;24.00;;
34876;SDS011;21086;44.780;17.194;2023-11-21T03:48:09;36.40;;;22.63;;
34876;SDS011;21086;44.780;17.194;2023-11-21T03:50:39;38.40;;;24.30;;
34876;SDS011;21086;44.780;17.194;2023-11-21T03:53:06;33.42;;;21.75;;
34876;SDS011;21086;44.780;17.194;2023-11-21T03:55:32;35.45;;;22.77;;
34876;SDS011;21086;44.780;17.194;2023-11-21T03:57:59;33.47;;;22.00;;
34876;SDS011;21086;44.780;17.194;2023-11-21T04:00:27;38.22;;;22.38;;
34876;SDS011;21086;44.780;17.194;2023-11-21T04:02:54;33.63;;;22.30;;
34876;SDS011;21086;44.780;17.194;2023-11-21T04:05:21;43.75;;;22.30;;
34876;SDS011;21086;44.780;17.194;2023-11-21T04:07:50;34.85;;;22.65;;
34876;SDS011;21086;44.780;17.194;2023-11-21T04:10:17;37.88;;;22.40;;
34876;SDS011;21086;44.780;17.194;2023-11-21T04:12:44;33.67;;;20.95;;
34876;SDS011;21086;44.780;17.194;2023-11-21T04:15:12;33.97;;;21.05;;
34876;SDS011;21086;44.780;17.194;2023-11-21T04:17:40;37.70;;;22.88;;
34876;SDS011;21086;44.780;17.194;2023-11-21T04:20:08;30.17;;;20.98;;
34876;SDS011;21086;44.780;17.194;2023-11-21T04:22:37;34.03;;;21.83;;
34876;SDS011;21086;44.780;17.194;2023-11-21T04:25:08;34.72;;;21.95;;
34876;SDS011;21086;44.780;17.194;2023-11-21T04:27:38;32.53;;;21.08;;
34876;SDS011;21086;44.780;17.194;2023-11-21T04:30:06;32.83;;;21.38;;
34876;SDS011;21086;44.780;17.194;2023-11-21T04:32:34;34.83;;;22.13;;
34876;SDS011;21086;44.780;17.194;2023-11-21T04:35:01;33.25;;;21.67;;
34876;SDS011;21086;44.780;17.194;2023-11-21T04:37:28;33.03;;;20.70;;
34876;SDS011;21086;44.780;17.194;2023-11-21T04:39:55;34.53;;;20.38;;
34876;SDS011;21086;44.780;17.194;2023-11-21T04:42:22;34.63;;;22.08;;
34876;SDS011;21086;44.780;17.194;2023-11-21T04:44:49;34.25;;;23.00;;
34876;SDS011;21086;44.780;17.194;2023-11-21T04:47:16;38.28;;;25.33;;
34876;SDS011;21086;44.780;17.194;2023-11-21T04:49:45;41.92;;;25.02;;
34876;SDS011;21086;44.780;17.194;2023-11-21T04:52:15;43.92;;;28.38;;
34876;SDS011;21086;44.780;17.194;2023-11-21T04:54:42;50.47;;;29.42;;
34876;SDS011;21086;44.780;17.194;2023-11-21T04:57:09;48.03;;;30.05;;
34876;SDS011;21086;44.780;17.194;2023-11-21T04:59:36;44.97;;;28.27;;
34876;SDS011;21086;44.780;17.194;2023-11-21T05:02:03;45.63;;;29.23;;
34876;SDS011;21086;44.780;17.194;2023-11-21T05:04:31;51.63;;;34.17;;
34876;SDS011;21086;44.780;17.194;2023-11-21T05:06:58;56.13;;;36.17;;
34876;SDS011;21086;44.780;17.194;2023-11-21T05:09:27;51.25;;;31.92;;
34876;SDS011;21086;44.780;17.194;2023-11-21T05:11:58;53.58;;;33.25;;
34876;SDS011;21086;44.780;17.194;2023-11-21T05:14:26;55.55;;;32.92;;
34876;SDS011;21086;44.780;17.194;2023-11-21T05:16:53;56.03;;;31.45;;
34876;SDS011;21086;44.780;17.194;2023-11-21T05:19:20;50.42;;;30.65;;
34876;SDS011;21086;44.780;17.194;2023-11-21T05:21:48;45.85;;;26.00;;
34876;SDS011;21086;44.780;17.194;2023-11-21T05:24:15;42.88;;;25.95;;
34876;SDS011;21086;44.780;17.194;2023-11-21T05:26:41;35.83;;;21.42;;
34876;SDS011;21086;44.780;17.194;2023-11-21T05:29:08;34.10;;;21.23;;
34876;SDS011;21086;44.780;17.194;2023-11-21T05:31:37;37.15;;;21.60;;
34876;SDS011;21086;44.780;17.194;2023-11-21T05:34:04;32.50;;;20.23;;
34876;SDS011;21086;44.780;17.194;2023-11-21T05:36:33;33.80;;;19.83;;
34876;SDS011;21086;44.780;17.194;2023-11-21T05:39:00;33.13;;;20.45;;
34876;SDS011;21086;44.780;17.194;2023-11-21T05:41:29;33.55;;;20.35;;
34876;SDS011;21086;44.780;17.194;2023-11-21T05:43:56;35.45;;;20.05;;
34876;SDS011;21086;44.780;17.194;2023-11-21T05:46:23;35.33;;;20.83;;
34876;SDS011;21086;44.780;17.194;2023-11-21T05:48:50;30.88;;;19.77;;
34876;SDS011;21086;44.780;17.194;2023-11-21T05:51:18;29.10;;;18.63;;
34876;SDS011;21086;44.780;17.194;2023-11-21T05:53:45;29.80;;;18.15;;
34876;SDS011;21086;44.780;17.194;2023-11-21T05:56:12;31.58;;;19.80;;
34876;SDS011;21086;44.780;17.194;2023-11-21T05:58:39;28.55;;;19.52;;
34876;SDS011;21086;44.780;17.194;2023-11-21T06:01:07;31.17;;;20.15;;
34876;SDS011;21086;44.780;17.194;2023-11-21T06:03:35;35.08;;;22.42;;
34876;SDS011;21086;44.780;17.194;2023-11-21T06:06:03;44.80;;;24.02;;
34876;SDS011;21086;44.780;17.194;2023-11-21T06:08:31;37.28;;;23.25;;
34876;SDS011;21086;44.780;17.194;2023-11-21T06:10:57;32.95;;;20.85;;
34876;SDS011;21086;44.780;17.194;2023-11-21T06:13:24;34.20;;;21.55;;
34876;SDS011;21086;44.780;17.194;2023-11-21T06:15:51;35.03;;;24.13;;
34876;SDS011;21086;44.780;17.194;2023-11-21T06:18:19;35.63;;;24.27;;
34876;SDS011;21086;44.780;17.194;2023-11-21T06:20:46;40.63;;;25.83;;
34876;SDS011;21086;44.780;17.194;2023-11-21T06:23:13;45.45;;;25.17;;
34876;SDS011;21086;44.780;17.194;2023-11-21T06:25:40;34.13;;;24.50;;
34876;SDS011;21086;44.780;17.194;2023-11-21T06:28:08;36.78;;;24.17;;
34876;SDS011;21086;44.780;17.194;2023-11-21T06:30:35;36.90;;;25.95;;
34876;SDS011;21086;44.780;17.194;2023-11-21T06:33:02;39.15;;;25.58;;
34876;SDS011;21086;44.780;17.194;2023-11-21T06:35:29;40.90;;;27.77;;
34876;SDS011;21086;44.780;17.194;2023-11-21T06:37:58;39.20;;;24.63;;
34876;SDS011;21086;44.780;17.194;2023-11-21T06:40:25;39.03;;;26.02;;
34876;SDS011;21086;44.780;17.194;2023-11-21T06:42:53;40.58;;;27.90;;
34876;SDS011;21086;44.780;17.194;2023-11-21T06:45:20;41.05;;;27.25;;
34876;SDS011;21086;44.780;17.194;2023-11-21T06:47:47;42.97;;;28.40;;
34876;SDS011;21086;44.780;17.194;2023-11-21T06:50:15;45.10;;;28.83;;
34876;SDS011;21086;44.780;17.194;2023-11-21T06:52:42;47.75;;;29.75;;
34876;SDS011;21086;44.780;17.194;2023-11-21T06:55:10;42.30;;;28.02;;
34876;SDS011;21086;44.780;17.194;2023-11-21T06:57:37;51.63;;;32.58;;
34876;SDS011;21086;44.780;17.194;2023-11-21T07:00:05;53.97;;;32.58;;
34876;SDS011;21086;44.780;17.194;2023-11-21T07:02:35;48.30;;;33.15;;
34876;SDS011;21086;44.780;17.194;2023-11-21T07:05:02;48.22;;;31.58;;
34876;SDS011;21086;44.780;17.194;2023-11-21T07:07:30;47.45;;;31.80;;
34876;SDS011;21086;44.780;17.194;2023-11-21T07:09:57;49.08;;;32.58;;
34876;SDS011;21086;44.780;17.194;2023-11-21T07:12:23;48.60;;;31.77;;
34876;SDS011;21086;44.780;17.194;2023-11-21T07:14:52;54.13;;;33.28;;
34876;SDS011;21086;44.780;17.194;2023-11-21T07:17:19;52.25;;;32.33;;
34876;SDS011;21086;44.780;17.194;2023-11-21T07:19:46;52.72;;;32.80;;
34876;SDS011;21086;44.780;17.194;2023-11-21T07:22:13;46.55;;;31.35;;
34876;SDS011;21086;44.780;17.194;2023-11-21T07:24:42;47.63;;;30.27;;
34876;SDS011;21086;44.780;17.194;2023-11-21T07:27:10;46.20;;;29.92;;
34876;SDS011;21086;44.780;17.194;2023-11-21T07:29:37;44.90;;;30.02;;
34876;SDS011;21086;44.780;17.194;2023-11-21T07:32:04;52.63;;;34.00;;
34876;SDS011;21086;44.780;17.194;2023-11-21T07:34:32;50.58;;;34.03;;
34876;SDS011;21086;44.780;17.194;2023-11-21T07:36:59;45.95;;;31.02;;
34876;SDS011;21086;44.780;17.194;2023-11-21T07:39:28;44.90;;;31.23;;
34876;SDS011;21086;44.780;17.194;2023-11-21T07:41:55;49.45;;;32.85;;
34876;SDS011;21086;44.780;17.194;2023-11-21T07:44:24;50.35;;;32.72;;
34876;SDS011;21086;44.780;17.194;2023-11-21T07:46:51;49.63;;;33.50;;
34876;SDS011;21086;44.780;17.194;2023-11-21T07:49:18;48.85;;;33.17;;
34876;SDS011;21086;44.780;17.194;2023-11-21T07:51:47;47.67;;;31.35;;
34876;SDS011;21086;44.780;17.194;2023-11-21T07:54:14;50.50;;;33.17;;
34876;SDS011;21086;44.780;17.194;2023-11-21T07:56:42;53.15;;;32.33;;
34876;SDS011;21086;44.780;17.194;2023-11-21T07:59:09;45.70;;;31.85;;
34876;SDS011;21086;44.780;17.194;2023-11-21T08:01:36;45.78;;;29.83;;
34876;SDS011;21086;44.780;17.194;2023-11-21T08:04:03;47.15;;;31.48;;
34876;SDS011;21086;44.780;17.194;2023-11-21T08:06:31;51.58;;;34.42;;
34876;SDS011;21086;44.780;17.194;2023-11-21T08:08:58;54.08;;;33.50;;
34876;SDS011;21086;44.780;17.194;2023-11-21T08:11:25;56.95;;;37.63;;
34876;SDS011;21086;44.780;17.194;2023-11-21T08:13:55;60.20;;;39.08;;
34876;SDS011;21086;44.780;17.194;2023-11-21T08:16:23;56.85;;;37.03;;
34876;SDS011;21086;44.780;17.194;2023-11-21T08:18:50;47.63;;;32.80;;
34876;SDS011;21086;44.780;17.194;2023-11-21T08:21:17;52.22;;;35.10;;
34876;SDS011;21086;44.780;17.194;2023-11-21T08:23:45;53.90;;;36.72;;
34876;SDS011;21086;44.780;17.194;2023-11-21T08:26:15;52.17;;;34.70;;
34876;SDS011;21086;44.780;17.194;2023-11-21T08:28:44;49.95;;;34.95;;
34876;SDS011;21086;44.780;17.194;2023-11-21T08:31:11;55.45;;;38.58;;
34876;SDS011;21086;44.780;17.194;2023-11-21T08:33:41;49.38;;;35.10;;
34876;SDS011;21086;44.780;17.194;2023-11-21T08:36:08;55.15;;;37.22;;
34876;SDS011;21086;44.780;17.194;2023-11-21T08:38:37;68.18;;;43.72;;
34876;SDS011;21086;44.780;17.194;2023-11-21T08:41:05;170.80;;;84.20;;
34876;SDS011;21086;44.780;17.194;2023-11-21T08:43:37;202.40;;;94.70;;
34876;SDS011;21086;44.780;17.194;2023-11-21T08:46:06;204.77;;;102.57;;
34876;SDS011;21086;44.780;17.194;2023-11-21T08:48:35;194.48;;;96.15;;
34876;SDS011;21086;44.780;17.194;2023-11-21T08:51:03;87.32;;;48.13;;
34876;SDS011;21086;44.780;17.194;2023-11-21T08:53:31;52.95;;;35.58;;
34876;SDS011;21086;44.780;17.194;2023-11-21T08:55:58;58.60;;;38.20;;
34876;SDS011;21086;44.780;17.194;2023-11-21T08:58:25;73.38;;;43.30;;
34876;SDS011;21086;44.780;17.194;2023-11-21T09:00:52;108.43;;;51.30;;
34876;SDS011;21086;44.780;17.194;2023-11-21T09:03:19;86.75;;;47.88;;
34876;SDS011;21086;44.780;17.194;2023-11-21T09:05:46;81.72;;;44.88;;
34876;SDS011;21086;44.780;17.194;2023-11-21T09:08:13;128.18;;;61.55;;
34876;SDS011;21086;44.780;17.194;2023-11-21T09:10:40;92.88;;;49.28;;
34876;SDS011;21086;44.780;17.194;2023-11-21T09:13:09;94.65;;;53.00;;
34876;SDS011;21086;44.780;17.194;2023-11-21T09:15:36;83.00;;;47.42;;
34876;SDS011;21086;44.780;17.194;2023-11-21T09:18:03;70.30;;;42.15;;
34876;SDS011;21086;44.780;17.194;2023-11-21T09:20:31;72.38;;;42.72;;
34876;SDS011;21086;44.780;17.194;2023-11-21T09:22:59;66.90;;;41.28;;
34876;SDS011;21086;44.780;17.194;2023-11-21T09:25:26;62.20;;;41.65;;
34876;SDS011;21086;44.780;17.194;2023-11-21T09:27:55;59.47;;;40.20;;
34876;SDS011;21086;44.780;17.194;2023-11-21T09:30:23;60.92;;;41.10;;
34876;SDS011;21086;44.780;17.194;2023-11-21T09:32:51;55.63;;;36.50;;
34876;SDS011;21086;44.780;17.194;2023-11-21T09:35:18;59.60;;;38.70;;
34876;SDS011;21086;44.780;17.194;2023-11-21T09:37:45;70.10;;;45.55;;
34876;SDS011;21086;44.780;17.194;2023-11-21T09:40:15;69.93;;;43.33;;
34876;SDS011;21086;44.780;17.194;2023-11-21T09:42:51;67.13;;;43.00;;
34876;SDS011;21086;44.780;17.194;2023-11-21T09:45:31;84.28;;;54.15;;
34876;SDS011;21086;44.780;17.194;2023-11-21T09:48:05;59.25;;;41.30;;
34876;SDS011;21086;44.780;17.194;2023-11-21T09:50:32;57.08;;;40.55;;
34876;SDS011;21086;44.780;17.194;2023-11-21T09:53:22;55.25;;;38.95;;
34876;SDS011;21086;44.780;17.194;2023-11-21T09:55:53;50.47;;;35.70;;
34876;SDS011;21086;44.780;17.194;2023-11-21T09:58:21;51.50;;;37.42;;
34876;SDS011;21086;44.780;17.194;2023-11-21T10:00:52;50.28;;;33.97;;
34876;SDS011;21086;44.780;17.194;2023-11-21T10:03:20;55.55;;;37.83;;
34876;SDS011;21086;44.780;17.194;2023-11-21T10:05:48;54.90;;;38.25;;
34876;SDS011;21086;44.780;17.194;2023-11-21T10:08:17;50.28;;;36.83;;
34876;SDS011;21086;44.780;17.194;2023-11-21T10:10:46;63.13;;;48.15;;
34876;SDS011;21086;44.780;17.194;2023-11-21T10:13:18;58.97;;;46.33;;
34876;SDS011;21086;44.780;17.194;2023-11-21T10:15:49;43.10;;;31.17;;
34876;SDS011;21086;44.780;17.194;2023-11-21T10:18:17;39.67;;;29.77;;
34876;SDS011;21086;44.780;17.194;2023-11-21T10:20:45;38.47;;;27.80;;
34876;SDS011;21086;44.780;17.194;2023-11-21T10:23:20;34.80;;;25.42;;
34876;SDS011;21086;44.780;17.194;2023-11-21T10:25:50;31.65;;;23.85;;
34876;SDS011;21086;44.780;17.194;2023-11-21T10:28:19;31.85;;;22.30;;
34876;SDS011;21086;44.780;17.194;2023-11-21T10:30:47;24.92;;;18.20;;
34876;SDS011;21086;44.780;17.194;2023-11-21T10:33:14;29.52;;;21.40;;
34876;SDS011;21086;44.780;17.194;2023-11-21T10:38:13;34.40;;;24.25;;
34876;SDS011;21086;44.780;17.194;2023-11-21T10:40:41;42.08;;;29.38;;
34876;SDS011;21086;44.780;17.194;2023-11-21T10:43:09;44.28;;;30.92;;
34876;SDS011;21086;44.780;17.194;2023-11-21T10:45:37;49.38;;;31.83;;
34876;SDS011;21086;44.780;17.194;2023-11-21T10:48:10;43.63;;;30.52;;
34876;SDS011;21086;44.780;17.194;2023-11-21T10:50:45;38.85;;;26.58;;
34876;SDS011;21086;44.780;17.194;2023-11-21T10:53:28;39.70;;;26.40;;
34876;SDS011;21086;44.780;17.194;2023-11-21T10:56:00;41.33;;;27.20;;
34876;SDS011;21086;44.780;17.194;2023-11-21T10:58:37;43.97;;;30.17;;
34876;SDS011;21086;44.780;17.194;2023-11-21T11:01:06;40.75;;;27.98;;
34876;SDS011;21086;44.780;17.194;2023-11-21T11:03:34;36.13;;;25.25;;
34876;SDS011;21086;44.780;17.194;2023-11-21T11:06:03;31.10;;;23.23;;
34876;SDS011;21086;44.780;17.194;2023-11-21T11:08:34;32.28;;;22.83;;
34876;SDS011;21086;44.780;17.194;2023-11-21T11:11:01;29.70;;;21.83;;
34876;SDS011;21086;44.780;17.194;2023-11-21T11:13:28;31.02;;;20.92;;
34876;SDS011;21086;44.780;17.194;2023-11-21T11:16:00;27.30;;;21.67;;
34876;SDS011;21086;44.780;17.194;2023-11-21T11:18:28;31.60;;;22.73;;
34876;SDS011;21086;44.780;17.194;2023-11-21T11:21:01;30.02;;;23.77;;
34876;SDS011;21086;44.780;17.194;2023-11-21T11:26:55;38.05;;;25.92;;
34876;SDS011;21086;44.780;17.194;2023-11-21T11:29:48;42.72;;;28.92;;
34876;SDS011;21086;44.780;17.194;2023-11-21T11:38:08;51.55;;;31.63;;
34876;SDS011;21086;44.780;17.194;2023-11-21T11:40:55;34.63;;;23.67;;
34876;SDS011;21086;44.780;17.194;2023-11-21T11:43:25;40.15;;;25.80;;
34876;SDS011;21086;44.780;17.194;2023-11-21T11:45:56;32.28;;;21.98;;
34876;SDS011;21086;44.780;17.194;2023-11-21T11:48:29;25.52;;;17.45;;
34876;SDS011;21086;44.780;17.194;2023-11-21T11:51:11;15.23;;;10.05;;
34876;SDS011;21086;44.780;17.194;2023-11-21T11:53:47;13.50;;;9.25;;
34876;SDS011;21086;44.780;17.194;2023-11-21T11:58:55;8.75;;;4.50;;
34876;SDS011;21086;44.780;17.194;2023-11-21T12:01:25;7.22;;;3.92;;
34876;SDS011;21086;44.780;17.194;2023-11-21T12:06:41;6.13;;;3.38;;
34876;SDS011;21086;44.780;17.194;2023-11-21T12:09:21;7.05;;;4.15;;
34876;SDS011;21086;44.780;17.194;2023-11-21T12:11:50;6.93;;;3.50;;
34876;SDS011;21086;44.780;17.194;2023-11-21T12:14:18;6.25;;;2.88;;
34876;SDS011;21086;44.780;17.194;2023-11-21T12:16:45;5.90;;;3.22;;
34876;SDS011;21086;44.780;17.194;2023-11-21T12:19:12;12.23;;;3.30;;
34876;SDS011;21086;44.780;17.194;2023-11-21T12:21:40;4.13;;;2.42;;
34876;SDS011;21086;44.780;17.194;2023-11-21T12:24:08;10.85;;;4.40;;
34876;SDS011;21086;44.780;17.194;2023-11-21T12:26:35;7.47;;;2.60;;
34876;SDS011;21086;44.780;17.194;2023-11-21T12:29:02;6.80;;;3.95;;
34876;SDS011;21086;44.780;17.194;2023-11-21T12:31:31;5.65;;;2.78;;
34876;SDS011;21086;44.780;17.194;2023-11-21T12:33:58;16.17;;;8.52;;
34876;SDS011;21086;44.780;17.194;2023-11-21T12:36:25;20.25;;;11.25;;
34876;SDS011;21086;44.780;17.194;2023-11-21T12:38:53;21.67;;;12.25;;
34876;SDS011;21086;44.780;17.194;2023-11-21T12:41:20;9.73;;;4.53;;
34876;SDS011;21086;44.780;17.194;2023-11-21T12:43:48;14.15;;;6.90;;
34876;SDS011;21086;44.780;17.194;2023-11-21T12:46:15;7.20;;;3.60;;
34876;SDS011;21086;44.780;17.194;2023-11-21T12:48:44;7.90;;;4.32;;
34876;SDS011;21086;44.780;17.194;2023-11-21T12:51:14;9.68;;;4.25;;
34876;SDS011;21086;44.780;17.194;2023-11-21T12:53:43;5.80;;;3.10;;
34876;SDS011;21086;44.780;17.194;2023-11-21T12:56:11;5.90;;;3.22;;
34876;SDS011;21086;44.780;17.194;2023-11-21T12:58:44;11.60;;;7.45;;
34876;SDS011;21086;44.780;17.194;2023-11-21T13:01:13;8.35;;;5.15;;
34876;SDS011;21086;44.780;17.194;2023-11-21T13:03:48;7.75;;;4.57;;
34876;SDS011;21086;44.780;17.194;2023-11-21T13:06:18;10.50;;;6.90;;
34876;SDS011;21086;44.780;17.194;2023-11-21T13:08:46;11.90;;;7.85;;
34876;SDS011;21086;44.780;17.194;2023-11-21T13:11:13;10.55;;;6.38;;
34876;SDS011;21086;44.780;17.194;2023-11-21T13:13:41;10.50;;;6.82;;
34876;SDS011;21086;44.780;17.194;2023-11-21T13:16:10;13.90;;;6.85;;
34876;SDS011;21086;44.780;17.194;2023-11-21T13:18:37;12.60;;;6.88;;
34876;SDS011;21086;44.780;17.194;2023-11-21T13:21:08;12.10;;;6.30;;
34876;SDS011;21086;44.780;17.194;2023-11-21T13:23:42;13.07;;;7.70;;
34876;SDS011;21086;44.780;17.194;2023-11-21T13:26:12;17.25;;;9.48;;
34876;SDS011;21086;44.780;17.194;2023-11-21T13:28:41;18.10;;;11.90;;
34876;SDS011;21086;44.780;17.194;2023-11-21T13:31:13;19.27;;;10.82;;
34876;SDS011;21086;44.780;17.194;2023-11-21T13:33:53;22.17;;;13.32;;
34876;SDS011;21086;44.780;17.194;2023-11-21T13:36:25;20.65;;;11.15;;
34876;SDS011;21086;44.780;17.194;2023-11-21T13:38:56;22.95;;;11.82;;
34876;SDS011;21086;44.780;17.194;2023-11-21T13:41:25;19.05;;;10.70;;
34876;SDS011;21086;44.780;17.194;2023-11-21T13:43:57;13.50;;;8.27;;
34876;SDS011;21086;44.780;17.194;2023-11-21T13:46:43;22.02;;;10.80;;
34876;SDS011;21086;44.780;17.194;2023-11-21T13:49:13;18.08;;;9.95;;
34876;SDS011;21086;44.780;17.194;2023-11-21T13:51:42;23.90;;;13.40;;
34876;SDS011;21086;44.780;17.194;2023-11-21T13:54:14;23.63;;;14.30;;
34876;SDS011;21086;44.780;17.194;2023-11-21T13:56:41;20.20;;;12.13;;
34876;SDS011;21086;44.780;17.194;2023-11-21T13:59:11;25.33;;;13.68;;
34876;SDS011;21086;44.780;17.194;2023-11-21T14:01:51;26.58;;;13.02;;
34876;SDS011;21086;44.780;17.194;2023-11-21T14:04:27;48.25;;;22.02;;
34876;SDS011;21086;44.780;17.194;2023-11-21T14:06:57;66.68;;;35.20;;
34876;SDS011;21086;44.780;17.194;2023-11-21T14:09:27;24.92;;;14.68;;
34876;SDS011;21086;44.780;17.194;2023-11-21T14:12:00;14.70;;;8.77;;
34876;SDS011;21086;44.780;17.194;2023-11-21T14:14:29;17.70;;;11.52;;
34876;SDS011;21086;44.780;17.194;2023-11-21T14:16:56;21.77;;;13.70;;
34876;SDS011;21086;44.780;17.194;2023-11-21T14:19:25;30.33;;;18.98;;
34876;SDS011;21086;44.780;17.194;2023-11-21T14:21:59;41.88;;;25.90;;
34876;SDS011;21086;44.780;17.194;2023-11-21T14:24:27;41.72;;;25.08;;
34876;SDS011;21086;44.780;17.194;2023-11-21T14:26:55;44.60;;;28.23;;
34876;SDS011;21086;44.780;17.194;2023-11-21T14:29:22;44.92;;;28.23;;
34876;SDS011;21086;44.780;17.194;2023-11-21T14:31:50;36.30;;;23.15;;
34876;SDS011;21086;44.780;17.194;2023-11-21T14:34:20;35.67;;;24.48;;
34876;SDS011;21086;44.780;17.194;2023-11-21T14:36:49;41.40;;;27.40;;